Time;durP1;ratioP1;P1;durP2;ratioP2;P2;SDS_P1;SDS_P2;PMS_P1;PMS_P2;Temp;Humidity;BMP_temperature;BMP_pressure;BME280_temperature;BME280_humidity;BME280_pressure;Samples;Min_cycle;Max_cycle;Signal;HPM_P1;HPM_P2
2023/07/21 00:00:15;;;;;;;8.20;3.50;;;16.20;99.90;;;;;;4984453;28;20079;-86
2023/07/21 00:02:41;;;;;;;6.63;3.30;;;16.20;99.90;;;;;;4986105;28;20025;-86
2023/07/21 00:05:08;;;;;;;7.45;3.20;;;16.20;99.90;;;;;;4985002;28;20041;-87
2023/07/21 00:07:35;;;;;;;7.03;3.45;;;16.20;99.90;;;;;;4985267;28;20089;-87
2023/07/21 00:10:07;;;;;;;7.35;3.78;;;16.10;99.90;;;;;;4985649;28;20033;-87
2023/07/21 00:12:40;;;;;;;8.52;3.20;;;16.10;99.90;;;;;;4985094;28;20113;-87
2023/07/21 00:15:07;;;;;;;6.47;3.10;;;16.10;99.90;;;;;;4985243;28;20042;-87
2023/07/21 00:17:35;;;;;;;11.63;3.80;;;16.10;99.90;;;;;;4984520;28;20045;-87
2023/07/21 00:20:11;;;;;;;6.30;3.55;;;16.10;99.90;;;;;;4984888;28;21059;-87
2023/07/21 00:22:37;;;;;;;6.32;3.15;;;16.10;99.90;;;;;;4984692;28;20022;-87
2023/07/21 00:25:05;;;;;;;6.68;3.20;;;16.10;99.90;;;;;;4950089;28;1052704;-87
2023/07/21 00:27:31;;;;;;;7.68;4.10;;;16.00;99.90;;;;;;4985169;28;20057;-87
2023/07/21 00:29:56;;;;;;;7.10;3.58;;;16.00;99.90;;;;;;4985580;28;20117;-87
2023/07/21 00:32:22;;;;;;;5.13;2.80;;;16.00;99.90;;;;;;4985606;28;20900;-87
2023/07/21 00:34:49;;;;;;;6.40;3.20;;;16.00;99.90;;;;;;4984422;28;20429;-87
2023/07/21 00:37:15;;;;;;;4.82;2.80;;;15.90;99.90;;;;;;4982939;28;20099;-87
2023/07/21 00:39:41;;;;;;;6.00;2.92;;;15.90;99.90;;;;;;4987124;28;20813;-87
2023/07/21 00:42:06;;;;;;;10.20;3.15;;;15.90;99.90;;;;;;4988811;28;20022;-87
2023/07/21 00:44:35;;;;;;;6.72;3.30;;;15.90;99.90;;;;;;4987714;28;20070;-87
2023/07/21 00:47:01;;;;;;;9.52;2.85;;;15.90;99.90;;;;;;4987294;28;20056;-87
2023/07/21 00:49:27;;;;;;;8.00;3.20;;;15.80;99.90;;;;;;4988673;28;20469;-87
2023/07/21 00:51:53;;;;;;;6.53;2.92;;;15.80;99.90;;;;;;4988500;28;20037;-87
2023/07/21 00:54:19;;;;;;;8.32;3.50;;;15.80;99.90;;;;;;4986466;28;20022;-87
2023/07/21 00:56:45;;;;;;;7.35;3.00;;;15.80;99.90;;;;;;4986558;28;20097;-87
2023/07/21 00:59:11;;;;;;;6.03;3.28;;;15.80;99.90;;;;;;4985273;28;20042;-87
2023/07/21 01:01:36;;;;;;;9.52;3.63;;;15.70;99.90;;;;;;4985903;28;20513;-87
2023/07/21 01:04:03;;;;;;;5.80;3.00;;;15.70;99.90;;;;;;4987236;28;20679;-86
2023/07/21 01:06:30;;;;;;;9.32;3.28;;;15.80;99.90;;;;;;4985509;28;20052;-87
2023/07/21 01:08:58;;;;;;;6.18;3.22;;;15.80;99.90;;;;;;4987082;28;20034;-86
2023/07/21 01:11:24;;;;;;;7.53;3.05;;;15.80;99.90;;;;;;4987883;28;20026;-86
2023/07/21 01:13:52;;;;;;;10.27;4.03;;;15.80;99.90;;;;;;4987172;28;20038;-86
2023/07/21 01:16:20;;;;;;;10.18;2.75;;;15.80;99.90;;;;;;4986316;28;20037;-86
2023/07/21 01:18:47;;;;;;;6.93;3.33;;;15.80;99.90;;;;;;4987680;28;20026;-86
2023/07/21 01:21:20;;;;;;;6.55;2.80;;;15.70;99.90;;;;;;4989618;28;21523;-86
2023/07/21 01:23:55;;;;;;;6.60;3.05;;;15.70;99.90;;;;;;4987501;28;20106;-86
2023/07/21 01:26:23;;;;;;;7.90;3.10;;;15.70;99.90;;;;;;4986845;28;20033;-87
2023/07/21 01:28:49;;;;;;;7.47;3.70;;;15.70;99.90;;;;;;4987179;28;20839;-87
2023/07/21 01:31:16;;;;;;;7.25;2.80;;;15.70;99.90;;;;;;4987448;28;20041;-86
2023/07/21 01:33:43;;;;;;;6.88;2.90;;;15.70;99.90;;;;;;4987724;28;20030;-86
2023/07/21 01:36:09;;;;;;;5.05;2.78;;;15.70;99.90;;;;;;4990738;28;20022;-86
2023/07/21 01:38:35;;;;;;;8.27;2.90;;;15.70;99.90;;;;;;4991433;28;21482;-86
2023/07/21 01:41:02;;;;;;;5.95;3.15;;;15.70;99.90;;;;;;4991671;28;20058;-86
2023/07/21 01:43:27;;;;;;;7.22;3.42;;;15.80;99.90;;;;;;4990912;28;20034;-86
2023/07/21 01:45:53;;;;;;;5.60;3.13;;;15.80;99.90;;;;;;4990813;28;20342;-86
2023/07/21 01:48:19;;;;;;;5.05;3.00;;;15.80;99.90;;;;;;4991574;28;20030;-86
2023/07/21 01:50:46;;;;;;;5.30;2.90;;;15.80;99.90;;;;;;4990267;28;20036;-86
2023/07/21 01:53:15;;;;;;;6.63;3.08;;;15.70;99.90;;;;;;4991441;28;20041;-86
2023/07/21 01:55:52;;;;;;;5.97;2.90;;;15.70;99.90;;;;;;4990951;28;20038;-86
2023/07/21 01:58:19;;;;;;;6.65;3.28;;;15.70;99.90;;;;;;4990240;28;20038;-85
2023/07/21 02:00:46;;;;;;;7.82;3.45;;;15.70;99.90;;;;;;4991499;28;20456;-87
2023/07/21 02:03:13;;;;;;;4.93;3.03;;;15.60;99.90;;;;;;4991406;28;20030;-87
2023/07/21 02:05:39;;;;;;;7.95;3.30;;;15.50;99.90;;;;;;4991279;28;20040;-86
2023/07/21 02:08:05;;;;;;;8.55;3.80;;;15.40;99.90;;;;;;4991038;28;20027;-87
2023/07/21 02:10:30;;;;;;;8.23;3.78;;;15.30;99.90;;;;;;4989489;28;20991;-86
2023/07/21 02:12:56;;;;;;;6.93;3.78;;;15.30;99.90;;;;;;4987740;28;20473;-86
2023/07/21 02:15:21;;;;;;;5.10;3.33;;;15.20;99.90;;;;;;4989244;28;20017;-86
2023/07/21 02:17:48;;;;;;;11.65;3.83;;;15.20;99.90;;;;;;4988803;28;20080;-86
2023/07/21 02:20:14;;;;;;;9.45;4.40;;;15.10;99.90;;;;;;4989365;28;20032;-86
2023/07/21 02:22:40;;;;;;;8.95;3.80;;;15.00;99.90;;;;;;4987735;28;20030;-86
2023/07/21 02:25:08;;;;;;;4.88;3.60;;;15.00;99.90;;;;;;4989174;28;20069;-86
2023/07/21 02:27:34;;;;;;;4.40;3.47;;;15.00;99.90;;;;;;4988067;28;20026;-86
2023/07/21 02:30:01;;;;;;;8.88;3.60;;;15.00;99.90;;;;;;4988037;28;20073;-86
2023/07/21 02:32:28;;;;;;;6.35;3.38;;;15.00;99.90;;;;;;4990672;28;20026;-86
2023/07/21 02:34:54;;;;;;;5.10;3.38;;;15.10;99.90;;;;;;4990110;28;20030;-86
2023/07/21 02:37:19;;;;;;;8.02;3.90;;;15.10;99.90;;;;;;4990388;28;20026;-86
2023/07/21 02:39:45;;;;;;;8.00;3.75;;;15.10;99.90;;;;;;4991330;28;20025;-86
2023/07/21 02:42:10;;;;;;;8.55;3.88;;;15.10;99.90;;;;;;4990395;28;21385;-85
2023/07/21 02:44:36;;;;;;;8.55;3.42;;;15.10;99.90;;;;;;4990021;28;20527;-86
2023/07/21 02:47:01;;;;;;;11.65;3.72;;;15.10;99.90;;;;;;4990341;28;20022;-87
2023/07/21 02:49:29;;;;;;;6.78;3.83;;;15.10;99.90;;;;;;4989583;28;20035;-86
2023/07/21 02:51:55;;;;;;;7.07;3.85;;;15.10;99.90;;;;;;4989036;28;20374;-86
2023/07/21 02:54:20;;;;;;;10.57;3.90;;;15.10;99.90;;;;;;4991216;28;20037;-86
2023/07/21 02:56:46;;;;;;;9.20;3.88;;;15.10;99.90;;;;;;4990025;28;20030;-85
2023/07/21 02:59:12;;;;;;;10.13;3.80;;;15.10;99.90;;;;;;4990492;28;20046;-86
2023/07/21 03:01:38;;;;;;;7.20;3.55;;;15.10;99.90;;;;;;4990688;28;20042;-86
2023/07/21 03:04:05;;;;;;;8.25;3.80;;;15.00;99.90;;;;;;4991340;28;20124;-86
2023/07/21 03:06:31;;;;;;;9.35;3.60;;;15.00;99.90;;;;;;4990307;28;20054;-86
2023/07/21 03:08:57;;;;;;;10.82;4.03;;;15.00;99.90;;;;;;4990358;28;21716;-86
2023/07/21 03:11:23;;;;;;;8.70;4.07;;;15.00;99.90;;;;;;4989441;28;20568;-86
2023/07/21 03:13:48;;;;;;;8.82;3.60;;;15.00;99.90;;;;;;4990910;28;20053;-86
2023/07/21 03:16:14;;;;;;;5.85;4.15;;;14.90;99.90;;;;;;4989163;28;20098;-86
2023/07/21 03:18:39;;;;;;;9.77;4.13;;;14.90;99.90;;;;;;4990177;28;20034;-86
2023/07/21 03:21:05;;;;;;;6.45;3.25;;;14.90;99.90;;;;;;4989572;28;20034;-87
2023/07/21 03:23:31;;;;;;;7.25;3.55;;;14.90;99.90;;;;;;4990004;28;20568;-86
2023/07/21 03:25:57;;;;;;;6.80;3.78;;;14.90;99.90;;;;;;4988937;28;20041;-86
2023/07/21 03:28:22;;;;;;;7.88;4.35;;;14.90;99.90;;;;;;4990416;28;20049;-86
2023/07/21 03:31:01;;;;;;;5.68;3.80;;;14.90;99.90;;;;;;4988630;28;20034;-86
2023/07/21 03:33:27;;;;;;;9.57;4.32;;;14.90;99.90;;;;;;4989500;28;20150;-86
2023/07/21 03:36:02;;;;;;;7.20;3.97;;;14.90;99.90;;;;;;4989431;28;20029;-86
2023/07/21 03:38:30;;;;;;;6.80;4.22;;;14.80;99.90;;;;;;4988943;28;20125;-86
2023/07/21 03:41:08;;;;;;;6.03;3.78;;;14.90;99.90;;;;;;4992137;28;20036;-86
2023/07/21 03:43:35;;;;;;;7.63;4.22;;;14.90;99.90;;;;;;4989962;28;20031;-86
2023/07/21 03:46:02;;;;;;;9.77;3.95;;;14.90;99.90;;;;;;4988041;28;20114;-85
2023/07/21 03:48:28;;;;;;;7.65;3.35;;;14.90;99.90;;;;;;4988979;28;20034;-85
2023/07/21 03:51:01;;;;;;;7.82;3.78;;;14.90;99.90;;;;;;4988381;28;20100;-85
2023/07/21 03:53:28;;;;;;;8.30;3.70;;;14.90;99.90;;;;;;4989114;28;20528;-84
2023/07/21 03:55:54;;;;;;;7.93;3.53;;;15.00;99.90;;;;;;4985986;28;20693;-85
2023/07/21 03:58:20;;;;;;;9.90;4.05;;;15.00;99.90;;;;;;4986535;28;20520;-84
2023/07/21 04:00:46;;;;;;;6.05;3.97;;;15.00;99.90;;;;;;4988209;28;20057;-84
2023/07/21 04:03:12;;;;;;;8.50;3.63;;;15.00;99.90;;;;;;4987455;28;20109;-84
2023/07/21 04:05:38;;;;;;;8.35;4.05;;;15.10;99.90;;;;;;4987973;28;20637;-84
2023/07/21 04:08:04;;;;;;;8.52;4.03;;;15.10;99.90;;;;;;4987827;28;20038;-84
2023/07/21 04:10:31;;;;;;;8.00;4.00;;;15.10;99.90;;;;;;4989073;28;20026;-85
2023/07/21 04:12:57;;;;;;;10.52;3.45;;;15.20;99.90;;;;;;4986942;28;20329;-85
2023/07/21 04:15:25;;;;;;;8.88;3.92;;;15.20;99.90;;;;;;4987252;28;20030;-77
2023/07/21 04:17:50;;;;;;;7.78;3.67;;;15.20;99.90;;;;;;4987539;28;20030;-77
2023/07/21 04:20:16;;;;;;;11.88;4.70;;;15.30;99.90;;;;;;4985969;28;20030;-76
2023/07/21 04:22:42;;;;;;;5.88;3.50;;;15.30;99.90;;;;;;4985634;28;20038;-75
2023/07/21 04:25:08;;;;;;;10.48;3.60;;;15.30;99.90;;;;;;4986373;28;20033;-76
2023/07/21 04:27:33;;;;;;;8.02;3.92;;;15.30;99.90;;;;;;4986636;28;21044;-77
2023/07/21 04:29:59;;;;;;;7.20;3.75;;;15.30;99.90;;;;;;4986305;28;20034;-77
2023/07/21 04:32:25;;;;;;;9.45;3.83;;;15.30;99.90;;;;;;4985035;28;20080;-78
2023/07/21 04:34:50;;;;;;;8.35;3.58;;;15.30;99.90;;;;;;4985857;28;20036;-77
2023/07/21 04:37:16;;;;;;;5.93;3.35;;;15.30;99.90;;;;;;4986643;28;20576;-77
2023/07/21 04:39:42;;;;;;;7.03;4.03;;;15.30;99.90;;;;;;4986656;28;20026;-75
2023/07/21 04:42:11;;;;;;;8.35;3.60;;;15.30;99.90;;;;;;4985414;28;20034;-75
2023/07/21 04:44:36;;;;;;;11.02;3.53;;;15.30;99.90;;;;;;4985110;28;20040;-78
2023/07/21 04:47:04;;;;;;;7.40;3.85;;;15.30;99.90;;;;;;4982812;28;20026;-77
2023/07/21 04:49:30;;;;;;;8.18;4.18;;;15.30;99.90;;;;;;4982883;28;20041;-77
2023/07/21 04:51:58;;;;;;;12.65;4.60;;;15.30;99.90;;;;;;4985015;28;20036;-77
2023/07/21 04:54:27;;;;;;;8.52;3.97;;;15.30;99.90;;;;;;4984719;28;20046;-75
2023/07/21 04:56:52;;;;;;;7.40;3.67;;;15.30;99.90;;;;;;4984313;28;20033;-76
2023/07/21 04:59:21;;;;;;;9.55;4.13;;;15.40;99.90;;;;;;4985856;28;20065;-81
2023/07/21 05:01:47;;;;;;;11.18;4.85;;;15.40;99.90;;;;;;4984565;28;20081;-77
2023/07/21 05:04:14;;;;;;;11.30;4.28;;;15.40;99.90;;;;;;4984120;28;20030;-77
2023/07/21 05:06:43;;;;;;;8.57;4.30;;;15.40;99.90;;;;;;4985261;28;20018;-77
2023/07/21 05:09:09;;;;;;;12.30;3.95;;;15.40;99.90;;;;;;4989439;28;20034;-77
2023/07/21 05:11:35;;;;;;;6.95;4.28;;;15.50;99.90;;;;;;4986605;28;20030;-82
2023/07/21 05:14:03;;;;;;;8.88;3.90;;;15.50;99.90;;;;;;4984132;28;20061;-77
2023/07/21 05:16:29;;;;;;;9.50;4.13;;;15.50;99.90;;;;;;4983113;28;20929;-83
2023/07/21 05:18:55;;;;;;;9.27;4.05;;;15.50;99.90;;;;;;4983766;28;20039;-78
2023/07/21 05:21:20;;;;;;;7.05;3.55;;;15.50;99.90;;;;;;4985656;28;20696;-84
2023/07/21 05:23:46;;;;;;;10.85;3.92;;;15.60;99.90;;;;;;4984656;28;20030;-82
2023/07/21 05:26:11;;;;;;;7.95;3.80;;;15.70;99.90;;;;;;4984766;28;20038;-83
2023/07/21 05:28:38;;;;;;;24.55;4.53;;;15.70;99.90;;;;;;4984789;28;20501;-82
2023/07/21 05:31:03;;;;;;;8.30;4.03;;;15.90;99.90;;;;;;4984124;28;20028;-83
2023/07/21 05:33:29;;;;;;;11.13;3.83;;;15.90;99.90;;;;;;4984178;28;20401;-83
2023/07/21 05:36:09;;;;;;;9.82;3.80;;;16.00;99.90;;;;;;4981724;28;20019;-82
2023/07/21 05:38:37;;;;;;;7.25;3.78;;;16.10;99.90;;;;;;4985460;28;20500;-83
2023/07/21 05:41:02;;;;;;;8.90;3.60;;;16.20;99.90;;;;;;4985986;28;21377;-82
2023/07/21 05:43:28;;;;;;;9.15;3.92;;;16.20;99.90;;;;;;4986583;28;20031;-83
2023/07/21 05:45:54;;;;;;;8.55;4.25;;;16.20;99.90;;;;;;4984820;28;20022;-83
2023/07/21 05:48:19;;;;;;;8.70;4.07;;;16.30;99.90;;;;;;4985665;28;20033;-83
2023/07/21 05:50:45;;;;;;;11.65;4.05;;;16.30;99.90;;;;;;4984050;28;20624;-83
2023/07/21 05:53:10;;;;;;;9.73;4.45;;;16.40;99.90;;;;;;4987514;28;20027;-83
2023/07/21 05:55:40;;;;;;;9.35;4.00;;;16.40;99.90;;;;;;4986287;28;20455;-83
2023/07/21 05:58:05;;;;;;;6.32;3.90;;;16.40;99.90;;;;;;4986652;28;20038;-83
2023/07/21 06:00:36;;;;;;;8.45;3.72;;;16.50;99.90;;;;;;4983542;28;20037;-83
2023/07/21 06:03:02;;;;;;;7.28;3.60;;;16.50;99.90;;;;;;4984760;28;20022;-83
2023/07/21 06:05:27;;;;;;;6.88;3.95;;;16.50;99.90;;;;;;4984033;28;20041;-84
2023/07/21 06:07:53;;;;;;;11.32;3.90;;;16.50;99.90;;;;;;4984410;28;20030;-83
2023/07/21 06:10:19;;;;;;;13.27;4.20;;;16.60;99.90;;;;;;4985319;28;20018;-83
2023/07/21 06:12:45;;;;;;;7.47;3.58;;;16.60;99.90;;;;;;4986983;28;20054;-82
2023/07/21 06:15:11;;;;;;;11.63;4.47;;;16.70;99.90;;;;;;4984943;28;20029;-83
2023/07/21 06:17:38;;;;;;;9.52;4.10;;;16.70;99.90;;;;;;4982025;28;20450;-83
2023/07/21 06:20:05;;;;;;;8.45;4.38;;;16.80;99.90;;;;;;4984968;28;20036;-84
2023/07/21 06:22:31;;;;;;;7.35;3.58;;;16.90;99.90;;;;;;4985943;28;20045;-83
2023/07/21 06:24:57;;;;;;;7.38;3.67;;;16.90;99.90;;;;;;4987127;28;20125;-84
2023/07/21 06:27:22;;;;;;;6.30;3.65;;;16.90;99.90;;;;;;4986710;28;20128;-83
2023/07/21 06:29:48;;;;;;;7.63;3.60;;;16.90;99.90;;;;;;4989450;28;20033;-84
2023/07/21 06:32:13;;;;;;;14.70;3.95;;;16.90;99.90;;;;;;4989695;28;20030;-83
2023/07/21 06:34:39;;;;;;;12.60;4.13;;;17.00;99.90;;;;;;4987542;28;20034;-83
2023/07/21 06:37:05;;;;;;;9.82;4.18;;;17.10;99.90;;;;;;4987178;28;20034;-83
2023/07/21 06:39:30;;;;;;;9.25;4.00;;;17.20;99.90;;;;;;4988223;28;20061;-83
2023/07/21 06:41:56;;;;;;;9.32;3.63;;;17.40;99.90;;;;;;4988425;28;20026;-83
2023/07/21 06:44:21;;;;;;;7.15;3.67;;;17.50;99.90;;;;;;4988564;28;21301;-83
2023/07/21 06:46:52;;;;;;;7.60;3.88;;;17.60;99.90;;;;;;4987281;28;20065;-83
2023/07/21 06:49:17;;;;;;;7.72;3.28;;;17.80;99.90;;;;;;4987727;28;20037;-83
2023/07/21 06:51:43;;;;;;;6.00;3.28;;;17.90;99.90;;;;;;4985438;28;20058;-85
2023/07/21 06:54:09;;;;;;;5.78;3.63;;;18.10;99.90;;;;;;4987442;28;20030;-83
2023/07/21 06:56:35;;;;;;;10.05;4.28;;;18.30;99.90;;;;;;4989168;28;20033;-83
2023/07/21 06:59:01;;;;;;;10.10;3.42;;;18.40;99.90;;;;;;4987940;28;20027;-83
2023/07/21 07:01:26;;;;;;;7.43;2.90;;;18.50;99.90;;;;;;4984866;28;20459;-84
2023/07/21 07:03:52;;;;;;;10.38;3.40;;;18.60;99.90;;;;;;4986182;28;20074;-83
2023/07/21 07:06:18;;;;;;;5.45;3.45;;;18.80;99.90;;;;;;4986799;28;20149;-84
2023/07/21 07:08:44;;;;;;;4.95;3.25;;;18.90;99.90;;;;;;4987796;28;20870;-83
2023/07/21 07:11:11;;;;;;;9.65;3.42;;;19.00;99.90;;;;;;4988339;28;20025;-83
2023/07/21 07:13:37;;;;;;;5.82;3.45;;;19.10;99.90;;;;;;4988515;28;20583;-84
2023/07/21 07:16:03;;;;;;;14.77;3.63;;;19.20;99.90;;;;;;4988980;28;20027;-83
2023/07/21 07:18:28;;;;;;;7.97;3.70;;;19.20;99.90;;;;;;4986374;28;20038;-84
2023/07/21 07:20:55;;;;;;;10.18;3.80;;;19.50;99.90;;;;;;4985706;28;20046;-83
2023/07/21 07:23:21;;;;;;;6.97;3.08;;;19.70;99.90;;;;;;4985682;28;20041;-84
2023/07/21 07:25:48;;;;;;;8.00;3.17;;;19.80;99.90;;;;;;4988236;28;20103;-83
2023/07/21 07:28:14;;;;;;;5.57;3.58;;;19.80;99.90;;;;;;4988339;28;20037;-83
2023/07/21 07:30:40;;;;;;;6.05;3.10;;;19.80;99.90;;;;;;4985431;28;20033;-83
2023/07/21 07:33:06;;;;;;;8.10;3.33;;;19.80;99.90;;;;;;4987353;28;20082;-83
2023/07/21 07:35:32;;;;;;;5.88;3.45;;;19.80;99.90;;;;;;4988975;28;20032;-82
2023/07/21 07:37:57;;;;;;;4.35;3.15;;;19.80;99.90;;;;;;4987988;28;20117;-83
2023/07/21 07:40:23;;;;;;;6.22;3.10;;;19.80;99.90;;;;;;4987431;28;20041;-84
2023/07/21 07:42:49;;;;;;;6.13;3.17;;;19.90;99.90;;;;;;4988189;28;20129;-84
2023/07/21 07:45:14;;;;;;;7.90;3.22;;;19.90;99.90;;;;;;4983557;28;20458;-84
2023/07/21 07:47:42;;;;;;;5.40;2.60;;;20.10;99.90;;;;;;4986199;28;20048;-84
2023/07/21 07:50:10;;;;;;;7.57;2.83;;;20.20;99.90;;;;;;4988680;28;20026;-83
2023/07/21 07:52:36;;;;;;;7.13;3.20;;;20.30;99.90;;;;;;4987629;28;20038;-84
2023/07/21 07:55:02;;;;;;;5.38;2.72;;;20.40;99.90;;;;;;4985298;28;20260;-84
2023/07/21 07:57:28;;;;;;;7.20;2.80;;;20.50;99.90;;;;;;4986596;28;20501;-83
2023/07/21 07:59:54;;;;;;;6.95;3.10;;;20.60;99.90;;;;;;4988428;28;20030;-83
2023/07/21 08:02:20;;;;;;;8.45;2.70;;;20.60;99.90;;;;;;4989155;28;20069;-83
2023/07/21 08:04:45;;;;;;;5.63;2.95;;;20.70;99.90;;;;;;4987693;28;20035;-83
2023/07/21 08:07:11;;;;;;;14.10;3.15;;;20.60;99.90;;;;;;4988010;28;20026;-83
2023/07/21 08:09:36;;;;;;;5.60;3.05;;;20.70;99.90;;;;;;4986697;28;20104;-84
2023/07/21 08:12:02;;;;;;;9.18;2.90;;;20.80;99.90;;;;;;4984988;28;20591;-83
2023/07/21 08:14:27;;;;;;;14.30;3.45;;;20.80;99.90;;;;;;4985503;28;20117;-83
2023/07/21 08:16:53;;;;;;;6.45;3.13;;;20.90;99.90;;;;;;4984856;28;21460;-83
2023/07/21 08:19:19;;;;;;;10.70;3.20;;;21.00;99.90;;;;;;4987429;28;20401;-83
2023/07/21 08:21:47;;;;;;;8.50;2.90;;;21.00;99.90;;;;;;4987995;28;20076;-83
2023/07/21 08:24:15;;;;;;;8.40;3.38;;;21.10;99.90;;;;;;4987144;28;20033;-83
2023/07/21 08:26:40;;;;;;;7.85;3.00;;;21.10;99.90;;;;;;4984964;28;20096;-83
2023/07/21 08:29:08;;;;;;;7.03;2.90;;;21.10;99.90;;;;;;4985833;28;20467;-83
2023/07/21 08:31:33;;;;;;;7.25;2.85;;;21.00;99.90;;;;;;4986658;28;20030;-84
2023/07/21 08:33:59;;;;;;;7.28;2.95;;;21.00;99.90;;;;;;4984996;28;20032;-84
2023/07/21 08:36:24;;;;;;;7.72;2.95;;;21.00;99.90;;;;;;4983563;28;20045;-83
2023/07/21 08:38:51;;;;;;;7.20;2.90;;;20.90;99.90;;;;;;4985437;28;20038;-84
2023/07/21 08:41:18;;;;;;;6.53;2.67;;;20.90;99.90;;;;;;4984502;28;20113;-83
2023/07/21 08:43:46;;;;;;;6.90;2.72;;;20.90;99.90;;;;;;4982490;28;20037;-83
2023/07/21 08:46:11;;;;;;;8.10;2.92;;;20.90;99.90;;;;;;4983485;28;20105;-83
2023/07/21 08:48:39;;;;;;;6.55;2.85;;;20.90;99.90;;;;;;4984328;28;20036;-83
2023/07/21 08:51:05;;;;;;;8.75;3.05;;;20.90;99.90;;;;;;4982550;28;20093;-84
2023/07/21 08:53:31;;;;;;;10.40;2.70;;;20.90;99.90;;;;;;4982224;28;20132;-84
2023/07/21 08:55:59;;;;;;;8.43;3.03;;;20.90;99.90;;;;;;4983492;28;20046;-83
2023/07/21 08:58:25;;;;;;;6.35;2.75;;;21.00;99.90;;;;;;4983348;28;20053;-84
2023/07/21 09:00:52;;;;;;;7.55;3.25;;;21.00;99.90;;;;;;4982456;28;20072;-83
2023/07/21 09:03:27;;;;;;;9.55;3.50;;;21.10;99.90;;;;;;4985336;28;20034;-84
2023/07/21 09:05:54;;;;;;;;;;;21.20;99.90;;;;;;4984067;28;20027;-83
2023/07/21 09:08:27;;;;;;;7.32;3.65;;;21.20;99.90;;;;;;4984176;28;20383;-83
2023/07/21 09:10:58;;;;;;;6.15;3.50;;;21.40;99.90;;;;;;4985089;28;20030;-84
2023/07/21 09:13:23;;;;;;;6.22;3.90;;;21.50;99.90;;;;;;4984570;28;20022;-83
2023/07/21 09:15:58;;;;;;;12.10;3.92;;;21.70;99.90;;;;;;4983576;28;20049;-83
2023/07/21 09:18:31;;;;;;;;;;;21.80;99.90;;;;;;4981988;28;20047;-84
2023/07/21 09:20:57;;;;;;;6.22;3.72;;;21.90;99.90;;;;;;4985444;28;19913;-83
2023/07/21 09:23:23;;;;;;;11.43;3.80;;;22.00;99.90;;;;;;4985311;28;20045;-84
2023/07/21 09:25:56;;;;;;;7.53;3.83;;;22.00;99.90;;;;;;4982792;28;20034;-83
2023/07/21 09:28:48;;;;;;;8.93;3.55;;;22.00;99.90;;;;;;4982297;28;20030;-84
2023/07/21 09:31:14;;;;;;;8.57;3.70;;;22.00;99.90;;;;;;4980834;28;20058;-84
2023/07/21 09:33:42;;;;;;;10.25;3.40;;;22.10;99.90;;;;;;4983500;28;20029;-84
2023/07/21 09:36:15;;;;;;;6.93;4.38;;;22.20;99.90;;;;;;4982397;28;20041;-83
2023/07/21 09:38:41;;;;;;;7.68;3.88;;;22.20;99.90;;;;;;4985383;28;20042;-83
2023/07/21 09:41:12;;;;;;;13.07;3.97;;;22.40;99.90;;;;;;4985640;28;20026;-84
2023/07/21 09:43:38;;;;;;;6.07;3.90;;;22.50;99.90;;;;;;4985661;28;20464;-83
2023/07/21 09:46:07;;;;;;;8.60;3.83;;;22.60;99.90;;;;;;4983754;28;20396;-84
2023/07/21 09:48:34;;;;;;;10.73;3.80;;;22.80;99.90;;;;;;4984691;28;21554;-84
2023/07/21 09:51:05;;;;;;;6.20;3.90;;;23.00;99.90;;;;;;4981326;28;20041;-83
2023/07/21 09:53:41;;;;;;;8.13;3.72;;;23.20;99.90;;;;;;4982386;28;20023;-84
2023/07/21 09:56:08;;;;;;;8.23;3.70;;;23.40;99.90;;;;;;4983533;28;20038;-83
2023/07/21 09:58:55;;;;;;;6.50;3.50;;;23.40;99.90;;;;;;4986369;28;20038;-84
2023/07/21 10:01:22;;;;;;;8.75;3.85;;;23.70;99.90;;;;;;4987520;28;20069;-85
2023/07/21 10:03:48;;;;;;;8.25;3.03;;;23.80;99.90;;;;;;4990507;28;20121;-84
2023/07/21 10:06:15;;;;;;;7.13;3.53;;;23.80;99.90;;;;;;4987834;28;20034;-85
2023/07/21 10:08:41;;;;;;;8.05;3.70;;;23.80;99.90;;;;;;4987480;28;20034;-84
2023/07/21 10:11:08;;;;;;;5.85;3.10;;;24.00;99.90;;;;;;4984874;28;20030;-83
2023/07/21 10:13:43;;;;;;;5.45;3.55;;;24.30;99.90;;;;;;4986943;28;20038;-84
2023/07/21 10:16:11;;;;;;;8.25;3.30;;;24.70;99.90;;;;;;4986770;28;20107;-84
2023/07/21 10:19:00;;;;;;;5.85;3.28;;;24.80;99.90;;;;;;4988008;28;20030;-84
2023/07/21 10:21:46;;;;;;;5.72;3.03;;;25.10;99.90;;;;;;4986701;28;20489;-84
2023/07/21 10:24:22;;;;;;;6.45;3.03;;;25.10;99.90;;;;;;4986590;28;20042;-85
2023/07/21 10:26:56;;;;;;;8.98;3.17;;;25.30;99.90;;;;;;4983472;28;20157;-84
2023/07/21 10:29:22;;;;;;;4.88;2.85;;;25.30;99.90;;;;;;4985056;28;20490;-83
2023/07/21 10:31:55;;;;;;;4.85;2.90;;;25.10;99.90;;;;;;4984546;28;20038;-84
2023/07/21 10:34:32;;;;;;;10.18;3.47;;;25.00;99.90;;;;;;4983554;28;21246;-84
2023/07/21 10:36:59;;;;;;;6.82;3.00;;;24.90;99.90;;;;;;4985386;28;20026;-83
2023/07/21 10:39:31;;;;;;;8.32;3.17;;;24.70;99.90;;;;;;4985771;28;20038;-84
2023/07/21 10:42:04;;;;;;;5.75;2.53;;;24.70;99.90;;;;;;4984373;28;20042;-84
2023/07/21 10:44:40;;;;;;;7.27;2.60;;;24.60;99.90;;;;;;4986136;28;20037;-84
2023/07/21 10:47:15;;;;;;;8.93;3.33;;;24.70;99.90;;;;;;4984135;28;20102;-85
2023/07/21 10:49:41;;;;;;;7.70;3.03;;;25.00;99.90;;;;;;4983560;28;20031;-84
2023/07/21 10:52:07;;;;;;;5.68;2.90;;;25.40;99.90;;;;;;4982368;28;20173;-84
2023/07/21 10:54:33;;;;;;;5.78;2.70;;;25.60;99.90;;;;;;4983160;28;20026;-84
2023/07/21 10:57:02;;;;;;;4.80;2.92;;;25.90;99.90;;;;;;4984561;28;20379;-85
2023/07/21 10:59:31;;;;;;;6.60;3.20;;;26.10;99.90;;;;;;4984420;28;20036;-84
2023/07/21 11:01:57;;;;;;;6.32;3.28;;;26.30;99.90;;;;;;4985479;28;20138;-84
2023/07/21 11:04:24;;;;;;;5.68;3.25;;;26.40;99.90;;;;;;4984946;28;20049;-84
2023/07/21 11:06:58;;;;;;;8.18;3.17;;;26.70;99.90;;;;;;4980823;28;20026;-83
2023/07/21 11:09:24;;;;;;;6.90;3.10;;;26.80;99.90;;;;;;4986545;28;20125;-84
2023/07/21 11:11:52;;;;;;;4.32;2.80;;;26.80;99.90;;;;;;4986138;28;20324;-84
2023/07/21 11:14:25;;;;;;;10.27;3.42;;;26.70;99.90;;;;;;4984502;28;20041;-83
2023/07/21 11:16:59;;;;;;;7.55;3.28;;;26.70;99.90;;;;;;4982737;28;20111;-83
2023/07/21 11:19:26;;;;;;;;;;;26.70;99.90;;;;;;4981844;28;20045;-83
2023/07/21 11:21:52;;;;;;;5.50;3.30;;;26.80;99.90;;;;;;4982511;28;19917;-83
2023/07/21 11:24:19;;;;;;;6.07;3.50;;;26.70;99.90;;;;;;4981191;28;20136;-83
2023/07/21 11:26:46;;;;;;;11.40;2.75;;;26.70;99.90;;;;;;4983322;28;20038;-83
2023/07/21 11:29:12;;;;;;;5.45;3.00;;;27.00;99.90;;;;;;4983237;28;20041;-83
2023/07/21 11:31:38;;;;;;;5.72;2.90;;;26.90;99.90;;;;;;4984583;28;20034;-84
2023/07/21 11:34:20;;;;;;;7.53;2.78;;;26.70;99.90;;;;;;4980267;28;20018;-84
2023/07/21 11:36:48;;;;;;;4.72;3.10;;;26.70;99.90;;;;;;4979066;28;20033;-84
2023/07/21 11:39:18;;;;;;;6.20;2.70;;;26.70;99.90;;;;;;4981799;28;20034;-84
2023/07/21 11:41:50;;;;;;;9.32;3.13;;;26.80;99.90;;;;;;4983157;28;20026;-83
2023/07/21 11:44:18;;;;;;;6.13;2.85;;;26.40;99.90;;;;;;4983739;28;20117;-84
2023/07/21 11:46:54;;;;;;;4.35;3.35;;;26.20;99.90;;;;;;4983195;28;20033;-84
2023/07/21 11:49:25;;;;;;;9.20;2.83;;;26.20;99.90;;;;;;4983408;28;20102;-83
2023/07/21 11:51:52;;;;;;;3.15;2.45;;;26.10;99.90;;;;;;4981003;28;20096;-84
2023/07/21 11:54:36;;;;;;;8.20;3.00;;;25.90;99.90;;;;;;4983398;28;20033;-84
2023/07/21 11:57:02;;;;;;;8.98;3.10;;;25.70;99.90;;;;;;4982222;28;20041;-84
2023/07/21 11:59:28;;;;;;;6.85;2.78;;;25.40;99.90;;;;;;4981930;28;20097;-84
2023/07/21 12:01:55;;;;;;;9.57;3.00;;;25.30;99.90;;;;;;4984731;28;20128;-83
2023/07/21 12:04:22;;;;;;;7.28;3.22;;;25.10;99.90;;;;;;4980511;28;20509;-84
2023/07/21 12:06:48;;;;;;;5.70;2.88;;;24.90;99.90;;;;;;4981689;28;20060;-84
2023/07/21 12:09:16;;;;;;;8.48;2.80;;;24.80;99.90;;;;;;4981099;28;20031;-84
2023/07/21 12:11:42;;;;;;;7.18;3.78;;;24.70;99.90;;;;;;4983907;28;20082;-83
2023/07/21 12:14:08;;;;;;;7.72;3.10;;;24.70;99.90;;;;;;4982358;28;20084;-83
2023/07/21 12:16:34;;;;;;;9.60;3.38;;;24.70;99.90;;;;;;4980972;28;20034;-83
2023/07/21 12:19:01;;;;;;;6.45;2.90;;;24.70;99.90;;;;;;4982143;28;20026;-83
2023/07/21 12:21:29;;;;;;;5.40;3.10;;;24.60;99.90;;;;;;4980421;28;20199;-83
2023/07/21 12:23:55;;;;;;;6.35;3.00;;;24.60;99.90;;;;;;4982871;28;20029;-84
2023/07/21 12:26:21;;;;;;;9.05;3.25;;;24.50;99.90;;;;;;4981568;28;20659;-84
2023/07/21 12:28:50;;;;;;;6.28;3.05;;;24.50;99.90;;;;;;4982773;28;20075;-83
2023/07/21 12:31:20;;;;;;;7.32;3.08;;;24.40;99.90;;;;;;4983037;28;20053;-83
2023/07/21 12:33:48;;;;;;;5.90;2.80;;;24.40;99.90;;;;;;4983830;28;20030;-84
2023/07/21 12:36:14;;;;;;;6.35;3.10;;;24.40;99.90;;;;;;4983241;28;20038;-84
2023/07/21 12:38:41;;;;;;;8.07;3.00;;;24.40;99.90;;;;;;4985199;28;20041;-84
2023/07/21 12:41:06;;;;;;;4.47;2.92;;;24.70;99.90;;;;;;4982678;28;20121;-83
2023/07/21 12:43:32;;;;;;;6.15;2.85;;;25.00;99.90;;;;;;4982256;28;20034;-85
2023/07/21 12:45:58;;;;;;;6.88;2.85;;;25.20;99.90;;;;;;4982808;28;20105;-83